Time;durP1;ratioP1;P1;durP2;ratioP2;P2;SDS_P1;SDS_P2;PMS_P1;PMS_P2;Temp;Humidity;BMP_temperature;BMP_pressure;BME280_temperature;BME280_humidity;BME280_pressure;Samples;Min_cycle;Max_cycle;Signal;HPM_P1;HPM_P2
2022/02/28 00:02:03;;;;;;;9.93;6.72;;;;;;;3.65;100.00;101867.88;4937671;29;20027;-70
2022/02/28 00:04:48;;;;;;;14.52;7.20;;;;;;;3.61;100.00;101874.69;4912788;29;20090;-71
2022/02/28 00:07:34;;;;;;;11.57;6.63;;;;;;;3.70;100.00;101867.16;4925182;29;20035;-71
2022/02/28 00:10:20;;;;;;;10.25;6.68;;;;;;;3.87;100.00;101875.44;4938718;29;20475;-73
2022/02/28 00:13:06;;;;;;;11.02;6.88;;;;;;;3.50;100.00;101868.31;4937638;29;20350;-72
2022/02/28 00:15:52;;;;;;;9.77;6.70;;;;;;;3.59;100.00;101870.28;4938149;29;20028;-70
2022/02/28 00:18:38;;;;;;;13.32;7.85;;;;;;;3.77;100.00;101874.28;4936816;29;20134;-71
2022/02/28 00:21:24;;;;;;;15.48;8.50;;;;;;;3.74;100.00;101868.16;4938225;29;20050;-71
2022/02/28 00:24:10;;;;;;;14.27;8.52;;;;;;;3.53;100.00;101873.59;4937289;29;20028;-71
2022/02/28 00:26:55;;;;;;;15.80;8.95;;;;;;;3.58;100.00;101878.91;4911116;29;20130;-71
2022/02/28 00:29:41;;;;;;;13.73;9.38;;;;;;;3.31;100.00;101862.56;4937929;29;20055;-71
2022/02/28 00:32:27;;;;;;;19.60;10.10;;;;;;;3.47;100.00;101865.66;4911541;29;20462;-71
2022/02/28 00:35:13;;;;;;;16.23;9.77;;;;;;;3.87;100.00;101865.06;4938187;29;20106;-71
2022/02/28 00:37:58;;;;;;;19.15;10.23;;;;;;;4.04;100.00;101863.78;4937167;29;20036;-71
2022/02/28 00:40:44;;;;;;;14.90;8.95;;;;;;;4.05;100.00;101858.66;4937963;29;20126;-71
2022/02/28 00:43:30;;;;;;;13.63;8.07;;;;;;;3.81;100.00;101857.09;4936412;29;20476;-70
2022/02/28 00:46:16;;;;;;;16.27;8.90;;;;;;;3.52;100.00;101855.41;4911258;29;20396;-70
2022/02/28 00:49:02;;;;;;;17.48;9.32;;;;;;;3.62;100.00;101852.25;4937017;29;20122;-69
2022/02/28 00:51:48;;;;;;;18.85;10.75;;;;;;;3.62;100.00;101847.94;4936987;29;20110;-70
2022/02/28 00:54:34;;;;;;;12.55;8.23;;;;;;;3.65;100.00;101852.31;4937386;29;20035;-70
2022/02/28 00:57:19;;;;;;;13.75;7.60;;;;;;;3.73;100.00;101845.63;4936763;29;20043;-72
2022/02/28 01:00:10;;;;;;;14.90;8.10;;;;;;;3.64;100.00;101845.38;4936836;29;20409;-70
2022/02/28 01:02:56;;;;;;;13.55;6.97;;;;;;;3.22;100.00;101847.59;4936612;29;20035;-70
2022/02/28 01:05:42;;;;;;;12.40;6.63;;;;;;;3.34;100.00;101845.38;4936797;29;20059;-70
2022/02/28 01:08:28;;;;;;;13.75;7.93;;;;;;;3.15;100.00;101839.63;4937112;29;20208;-69
2022/02/28 01:11:14;;;;;;;12.65;7.10;;;;;;;3.38;100.00;101843.78;4937145;29;20043;-70
2022/02/28 01:14:00;;;;;;;11.65;7.75;;;;;;;3.39;100.00;101850.69;4936769;29;20368;-70
2022/02/28 01:16:46;;;;;;;10.77;6.38;;;;;;;3.22;100.00;101849.34;4911441;29;20114;-70
2022/02/28 01:19:33;;;;;;;10.15;6.03;;;;;;;3.46;100.00;101843.13;4936634;29;20043;-70
2022/02/28 01:22:18;;;;;;;11.13;5.78;;;;;;;3.30;100.00;101845.25;4936563;29;20125;-70
2022/02/28 01:25:06;;;;;;;12.45;6.32;;;;;;;3.21;100.00;101838.09;4923727;29;20444;-71
2022/02/28 01:27:52;;;;;;;12.55;6.38;;;;;;;3.25;100.00;101837.34;4936467;29;20024;-70
2022/02/28 01:30:39;;;;;;;9.98;5.70;;;;;;;3.48;100.00;101846.66;4936293;29;20028;-71
2022/02/28 01:33:24;;;;;;;13.15;6.07;;;;;;;3.28;100.00;101844.31;4936256;29;20028;-71
2022/02/28 01:36:10;;;;;;;10.15;6.60;;;;;;;3.30;100.00;101834.91;4936207;29;20098;-70
2022/02/28 01:38:56;;;;;;;12.52;6.80;;;;;;;3.57;100.00;101840.84;4935940;29;20066;-70
2022/02/28 01:41:42;;;;;;;10.32;6.60;;;;;;;3.99;100.00;101840.31;4911129;29;20027;-71
2022/02/28 01:44:28;;;;;;;11.40;5.65;;;;;;;3.96;100.00;101831.59;4909845;29;20028;-71
2022/02/28 01:47:14;;;;;;;10.07;5.47;;;;;;;4.29;100.00;101825.56;4937146;29;20035;-71
2022/02/28 01:49:59;;;;;;;9.40;5.85;;;;;;;4.10;100.00;101828.53;4935973;29;20139;-70
2022/02/28 01:52:48;;;;;;;7.82;5.53;;;;;;;4.00;100.00;101828.25;4909974;29;20070;-71
2022/02/28 01:55:34;;;;;;;12.48;5.40;;;;;;;3.98;100.00;101825.63;4938259;29;20039;-70
2022/02/28 01:58:20;;;;;;;11.20;4.90;;;;;;;3.98;100.00;101829.94;4940653;29;20050;-70
2022/02/28 02:01:07;;;;;;;8.18;4.95;;;;;;;4.09;100.00;101826.78;4913714;29;20080;-71
2022/02/28 02:03:53;;;;;;;10.75;5.15;;;;;;;4.08;100.00;101827.63;4940074;29;20067;-70
2022/02/28 02:06:39;;;;;;;8.48;5.07;;;;;;;3.97;100.00;101834.25;4940427;29;20039;-71
2022/02/28 02:09:24;;;;;;;10.88;5.47;;;;;;;4.02;100.00;101826.59;4940462;29;20023;-70
2022/02/28 02:12:10;;;;;;;10.38;5.07;;;;;;;3.86;100.00;101830.47;4940211;29;20039;-71
2022/02/28 02:14:57;;;;;;;8.50;4.90;;;;;;;3.78;100.00;101826.78;4939587;29;20107;-70
2022/02/28 02:17:43;;;;;;;8.23;5.03;;;;;;;4.20;100.00;101824.47;4939873;29;20130;-70
2022/02/28 02:20:29;;;;;;;7.82;4.97;;;;;;;3.90;100.00;101821.09;4939493;29;20046;-70
2022/02/28 02:23:15;;;;;;;10.02;4.80;;;;;;;3.78;100.00;101816.41;4939815;29;20051;-70
2022/02/28 02:26:01;;;;;;;9.20;5.38;;;;;;;4.07;100.00;101818.06;4939415;29;20075;-70
2022/02/28 02:28:47;;;;;;;8.52;5.28;;;;;;;4.19;100.00;101812.34;4939894;29;20028;-71
2022/02/28 02:31:32;;;;;;;8.45;5.28;;;;;;;4.22;100.00;101810.69;4939331;29;20068;-71
2022/02/28 02:34:18;;;;;;;8.38;5.20;;;;;;;4.05;100.00;101808.50;4939331;29;20034;-70
2022/02/28 02:37:04;;;;;;;8.93;5.03;;;;;;;4.26;100.00;101794.38;4939323;29;20118;-70
2022/02/28 02:39:50;;;;;;;11.35;5.60;;;;;;;4.37;100.00;101798.13;4926697;29;20110;-70
2022/02/28 02:42:35;;;;;;;9.48;5.13;;;;;;;4.02;100.00;101793.75;4939752;29;20032;-71
2022/02/28 02:45:21;;;;;;;11.52;5.32;;;;;;;3.97;100.00;101800.53;4939073;29;20031;-70
2022/02/28 02:48:15;;;;;;;8.65;5.35;;;;;;;3.86;100.00;101795.91;4926995;29;20039;-71
2022/02/28 02:51:01;;;;;;;10.23;5.82;;;;;;;3.79;100.00;101789.69;4939264;29;20472;-70
2022/02/28 02:53:47;;;;;;;8.90;5.57;;;;;;;3.83;100.00;101794.13;4940061;29;20031;-69
2022/02/28 02:56:33;;;;;;;9.85;5.82;;;;;;;4.07;100.00;101792.13;4927303;29;20027;-71
2022/02/28 02:59:19;;;;;;;11.38;6.15;;;;;;;3.99;100.00;101793.66;4939944;29;20046;-70
2022/02/28 03:02:05;;;;;;;9.25;5.72;;;;;;;3.90;100.00;101795.16;4938929;29;20107;-71
2022/02/28 03:04:50;;;;;;;12.60;6.75;;;;;;;3.89;100.00;101796.88;4925643;29;20042;-70
2022/02/28 03:07:36;;;;;;;11.30;5.72;;;;;;;3.63;100.00;101784.03;4938843;29;20043;-70
2022/02/28 03:10:22;;;;;;;12.38;6.25;;;;;;;3.61;100.00;101788.28;4938994;29;20036;-70
2022/02/28 03:13:07;;;;;;;13.05;6.30;;;;;;;3.46;100.00;101790.47;4938840;29;20436;-70
2022/02/28 03:15:53;;;;;;;14.50;7.10;;;;;;;3.73;100.00;101788.63;4938930;29;20027;-70
2022/02/28 03:18:39;;;;;;;9.93;6.15;;;;;;;3.87;100.00;101788.16;4899409;29;20056;-69
2022/02/28 03:21:25;;;;;;;9.27;5.85;;;;;;;3.79;100.00;101786.22;4939208;29;20042;-70
2022/02/28 03:24:11;;;;;;;11.85;5.55;;;;;;;3.84;100.00;101784.59;4939572;29;20023;-70
2022/02/28 03:26:57;;;;;;;10.43;6.32;;;;;;;4.08;100.00;101782.66;4938472;29;20032;-70
2022/02/28 03:29:43;;;;;;;12.85;6.30;;;;;;;3.84;100.00;101782.91;4925362;29;20028;-70
2022/02/28 03:32:29;;;;;;;8.85;5.40;;;;;;;3.78;100.00;101784.47;4938156;29;20118;-70
2022/02/28 03:35:15;;;;;;;9.65;5.80;;;;;;;3.87;100.00;101788.16;4938827;29;20023;-70
2022/02/28 03:38:01;;;;;;;12.25;5.85;;;;;;;3.98;100.00;101784.13;4938369;29;20039;-70
2022/02/28 03:40:48;;;;;;;9.77;5.65;;;;;;;3.94;100.00;101786.63;4938373;29;20027;-71
2022/02/28 03:43:33;;;;;;;10.90;5.63;;;;;;;4.02;100.00;101775.59;4938635;29;20090;-71
2022/02/28 03:46:19;;;;;;;9.23;5.75;;;;;;;4.30;100.00;101783.22;4938411;29;20048;-70
2022/02/28 03:49:05;;;;;;;12.60;6.15;;;;;;;4.45;100.00;101786.19;4911997;29;20027;-71
2022/02/28 03:51:50;;;;;;;9.10;5.63;;;;;;;3.97;100.00;101779.78;4937808;29;20417;-70
2022/02/28 03:54:36;;;;;;;8.70;4.78;;;;;;;3.72;100.00;101779.09;4938165;29;20019;-71
2022/02/28 03:57:22;;;;;;;9.57;5.38;;;;;;;3.71;100.00;101791.19;4937732;29;20028;-70
2022/02/28 04:00:09;;;;;;;8.57;4.40;;;;;;;3.50;100.00;101779.38;4937819;29;20035;-70
2022/02/28 04:02:55;;;;;;;6.28;4.28;;;;;;;3.39;100.00;101778.19;4924021;29;20110;-70
2022/02/28 04:05:41;;;;;;;10.60;4.45;;;;;;;3.45;100.00;101770.56;4938341;29;20363;-71
2022/02/28 04:08:27;;;;;;;6.20;3.90;;;;;;;3.30;100.00;101775.34;4937783;29;20321;-70
2022/02/28 04:11:13;;;;;;;7.45;4.25;;;;;;;3.36;100.00;101778.09;4938384;29;20092;-71
2022/02/28 04:14:00;;;;;;;8.73;4.47;;;;;;;3.39;100.00;101776.47;4911508;29;20038;-71
2022/02/28 04:16:45;;;;;;;8.93;4.50;;;;;;;3.29;100.00;101771.84;4911321;29;20027;-71
2022/02/28 04:19:31;;;;;;;7.85;4.05;;;;;;;3.31;100.00;101782.25;4937212;29;20126;-71
2022/02/28 04:22:17;;;;;;;10.32;4.80;;;;;;;3.33;100.00;101771.09;4911938;29;20428;-71
2022/02/28 04:25:03;;;;;;;9.55;4.15;;;;;;;3.37;100.00;101782.41;4937427;29;20062;-70
2022/02/28 04:27:49;;;;;;;7.43;4.20;;;;;;;3.33;100.00;101780.56;4911870;29;20027;-71
2022/02/28 04:30:34;;;;;;;8.45;3.35;;;;;;;3.39;100.00;101781.66;4912171;29;20140;-72
2022/02/28 04:33:20;;;;;;;7.90;4.00;;;;;;;3.16;100.00;101781.81;4937162;29;20086;-72
2022/02/28 04:36:06;;;;;;;8.30;4.13;;;;;;;3.23;100.00;101784.66;4938078;29;20038;-71
2022/02/28 04:38:52;;;;;;;8.05;3.85;;;;;;;3.16;100.00;101771.47;4937134;29;20124;-71
2022/02/28 04:41:38;;;;;;;6.97;3.70;;;;;;;2.95;100.00;101782.06;4925269;29;20028;-71
2022/02/28 04:44:24;;;;;;;11.00;4.07;;;;;;;3.09;100.00;101779.91;4937221;29;20023;-71
2022/02/28 04:47:10;;;;;;;7.50;4.05;;;;;;;2.91;100.00;101780.22;4937457;29;20028;-71
2022/02/28 04:49:55;;;;;;;7.45;4.30;;;;;;;2.99;100.00;101775.28;4937397;29;20033;-71
2022/02/28 04:52:41;;;;;;;7.95;4.22;;;;;;;2.91;100.00;101780.22;4937280;29;20047;-71
2022/02/28 04:55:27;;;;;;;8.35;4.25;;;;;;;3.02;100.00;101778.81;4937017;29;20024;-72
2022/02/28 04:58:13;;;;;;;5.63;3.47;;;;;;;2.99;100.00;101778.75;4937081;29;20019;-71
2022/02/28 05:00:58;;;;;;;8.15;4.20;;;;;;;2.99;100.00;101777.88;4911300;29;20516;-72
2022/02/28 05:03:44;;;;;;;7.35;4.32;;;;;;;3.41;100.00;101786.84;4936989;29;20030;-72
2022/02/28 05:06:30;;;;;;;7.68;4.38;;;;;;;3.16;100.00;101789.59;4936962;29;20123;-72
2022/02/28 05:09:17;;;;;;;7.05;4.18;;;;;;;3.23;100.00;101797.59;4937541;29;20062;-71
2022/02/28 05:12:03;;;;;;;7.40;3.80;;;;;;;3.03;100.00;101797.81;4936806;29;20031;-71
2022/02/28 05:14:49;;;;;;;8.35;4.32;;;;;;;2.57;100.00;101789.50;4936261;29;20027;-71
2022/02/28 05:17:35;;;;;;;8.95;4.28;;;;;;;2.74;100.00;101796.94;4910689;29;20110;-72
2022/02/28 05:20:21;;;;;;;6.80;4.00;;;;;;;2.77;100.00;101803.94;4936226;29;20111;-71
2022/02/28 05:23:06;;;;;;;8.30;4.30;;;;;;;2.82;100.00;101805.81;4936538;29;20032;-71
2022/02/28 05:25:52;;;;;;;7.80;5.03;;;;;;;2.74;100.00;101812.44;4936411;29;20027;-71
2022/02/28 05:28:38;;;;;;;7.97;4.60;;;;;;;2.66;100.00;101813.91;4936678;29;20043;-72
2022/02/28 05:31:24;;;;;;;7.75;4.70;;;;;;;2.55;100.00;101807.56;4936392;29;20038;-72
2022/02/28 05:34:09;;;;;;;8.38;4.57;;;;;;;2.72;100.00;101808.97;4936012;29;20023;-72
2022/02/28 05:36:55;;;;;;;10.30;4.70;;;;;;;2.74;100.00;101825.38;4923108;29;20067;-72
2022/02/28 05:39:41;;;;;;;9.48;5.18;;;;;;;2.69;100.00;101815.75;4936421;29;20428;-71
2022/02/28 05:42:27;;;;;;;8.23;5.07;;;;;;;2.61;100.00;101818.06;4922724;29;20028;-70
2022/02/28 05:45:13;;;;;;;10.45;5.75;;;;;;;2.63;100.00;101828.47;4935983;29;20126;-71
2022/02/28 05:47:58;;;;;;;8.50;5.03;;;;;;;2.44;100.00;101829.59;4937288;29;20034;-71
2022/02/28 05:50:44;;;;;;;9.10;5.60;;;;;;;2.36;100.00;101833.63;4936518;29;20027;-71
2022/02/28 05:53:31;;;;;;;10.93;5.78;;;;;;;2.69;100.00;101826.09;4910269;29;20028;-71
2022/02/28 05:56:17;;;;;;;11.30;5.78;;;;;;;2.64;100.00;101830.22;4936017;29;20114;-71
2022/02/28 05:59:03;;;;;;;9.43;5.63;;;;;;;2.46;100.00;101834.81;4936176;29;20032;-72
2022/02/28 06:01:48;;;;;;;10.77;6.30;;;;;;;2.53;100.00;101842.81;4935751;29;20035;-71
2022/02/28 06:04:34;;;;;;;9.77;6.10;;;;;;;2.51;100.00;101838.44;4936584;29;20028;-72
2022/02/28 06:07:20;;;;;;;12.60;6.32;;;;;;;2.64;100.00;101843.16;4909767;29;20050;-71
2022/02/28 06:10:06;;;;;;;10.75;6.57;;;;;;;2.52;100.00;101854.00;4935906;29;20031;-72
2022/02/28 06:12:52;;;;;;;13.52;7.25;;;;;;;2.67;100.00;101846.75;4936057;29;20150;-72
2022/02/28 06:15:41;;;;;;;15.55;7.38;;;;;;;2.63;100.00;101842.31;4936315;29;20378;-73
2022/02/28 06:18:27;;;;;;;11.93;7.35;;;;;;;2.45;100.00;101852.03;4922365;29;20056;-71
2022/02/28 06:21:12;;;;;;;17.38;7.93;;;;;;;2.47;100.00;101850.41;4935701;29;20038;-72
2022/02/28 06:23:58;;;;;;;15.10;8.40;;;;;;;2.52;100.00;101856.59;4935938;29;20099;-69
2022/02/28 06:26:48;;;;;;;18.98;10.52;;;;;;;2.61;100.00;101859.47;4935994;29;20130;-68
2022/02/28 06:29:34;;;;;;;19.95;11.70;;;;;;;2.54;100.00;101860.13;4937590;29;20078;-71
2022/02/28 06:32:20;;;;;;;15.85;10.30;;;;;;;2.75;100.00;101862.50;4936207;29;20036;-69
2022/02/28 06:35:06;;;;;;;12.57;8.10;;;;;;;2.64;100.00;101856.09;4937177;29;20024;-69
2022/02/28 06:37:52;;;;;;;13.05;8.82;;;;;;;2.55;100.00;101863.56;4936353;29;20461;-71
2022/02/28 06:40:38;;;;;;;17.63;9.18;;;;;;;2.64;100.00;101863.84;4936381;29;20039;-70
2022/02/28 06:43:25;;;;;;;15.77;9.30;;;;;;;2.57;100.00;101864.50;4939138;29;20028;-69
2022/02/28 06:46:10;;;;;;;13.65;8.70;;;;;;;2.38;100.00;101868.19;4939334;29;20031;-70
2022/02/28 06:48:56;;;;;;;17.60;10.80;;;;;;;2.52;100.00;101872.09;4939505;29;20028;-69
2022/02/28 06:51:42;;;;;;;23.83;15.77;;;;;;;2.64;100.00;101876.78;4940742;29;20024;-72
2022/02/28 06:54:28;;;;;;;18.08;11.43;;;;;;;2.86;100.00;101869.75;4939785;29;20144;-70
2022/02/28 06:57:13;;;;;;;15.52;10.20;;;;;;;2.58;100.00;101871.44;4926096;29;20372;-72
2022/02/28 06:59:59;;;;;;;16.85;10.75;;;;;;;2.50;100.00;101884.13;4940491;29;20110;-70
2022/02/28 07:02:45;;;;;;;18.15;12.20;;;;;;;2.61;100.00;101881.88;4940133;29;20028;-72
2022/02/28 07:05:31;;;;;;;17.05;11.13;;;;;;;2.71;100.00;101886.53;4939670;29;20024;-70
2022/02/28 07:08:18;;;;;;;14.20;9.82;;;;;;;2.43;100.00;101889.03;4939326;29;20114;-69
2022/02/28 07:11:04;;;;;;;15.23;9.98;;;;;;;2.48;100.00;101896.09;4939129;29;20071;-70
2022/02/28 07:13:51;;;;;;;17.20;10.02;;;;;;;2.61;100.00;101897.41;4935566;29;20107;-70
2022/02/28 07:16:37;;;;;;;16.27;10.15;;;;;;;2.55;100.00;101904.94;4928616;29;20071;-69
2022/02/28 07:19:23;;;;;;;23.00;14.02;;;;;;;2.55;100.00;101894.59;4913484;29;20056;-71
2022/02/28 07:22:12;;;;;;;15.50;10.75;;;;;;;2.38;100.00;101896.66;4899122;29;20059;-71
2022/02/28 07:25:01;;;;;;;17.10;10.82;;;;;;;2.67;100.00;101897.59;4912884;29;20082;-71
2022/02/28 07:27:47;;;;;;;18.33;11.73;;;;;;;2.94;100.00;101898.50;4898801;29;20024;-71
2022/02/28 07:30:33;;;;;;;18.42;11.43;;;;;;;2.97;100.00;101902.06;4899262;29;20111;-70
2022/02/28 07:33:19;;;;;;;16.95;10.93;;;;;;;2.48;100.00;101908.16;4911818;29;20476;-71
2022/02/28 07:36:06;;;;;;;34.75;20.65;;;;;;;2.42;100.00;101911.44;4899106;29;20048;-71
2022/02/28 07:38:52;;;;;;;17.15;11.40;;;;;;;2.44;100.00;101912.34;4912847;29;20063;-69
2022/02/28 07:41:38;;;;;;;16.77;10.75;;;;;;;2.35;100.00;101918.91;4913215;29;20047;-72
2022/02/28 07:44:24;;;;;;;14.38;9.95;;;;;;;2.17;100.00;101913.97;4910747;29;20032;-72
2022/02/28 07:47:10;;;;;;;19.00;11.20;;;;;;;2.33;100.00;101916.25;4913302;29;20027;-74
2022/02/28 07:49:56;;;;;;;16.25;10.95;;;;;;;2.22;100.00;101911.56;4898967;29;20511;-72
2022/02/28 07:52:41;;;;;;;20.27;12.40;;;;;;;2.69;100.00;101920.09;4910630;29;20051;-70
2022/02/28 07:55:27;;;;;;;17.50;11.13;;;;;;;2.67;100.00;101923.47;4912862;29;20024;-72
2022/02/28 07:58:13;;;;;;;15.27;10.20;;;;;;;2.73;100.00;101921.97;4912551;29;20039;-72
2022/02/28 08:00:59;;;;;;;15.73;10.05;;;;;;;2.11;100.00;101918.94;4910640;29;20401;-69
2022/02/28 08:03:44;;;;;;;34.17;19.92;;;;;;;2.70;100.00;101931.34;4912367;29;20040;-71
2022/02/28 08:06:30;;;;;;;16.83;11.15;;;;;;;2.83;100.00;101931.81;4911783;29;20721;-71
2022/02/28 08:09:18;;;;;;;17.73;12.30;;;;;;;2.80;100.00;101941.16;4911147;29;20032;-71
2022/02/28 08:12:04;;;;;;;18.77;11.90;;;;;;;2.69;100.00;101943.38;4911765;29;20056;-71
2022/02/28 08:14:50;;;;;;;17.45;10.27;;;;;;;2.45;100.00;101944.28;4911753;29;20056;-71
2022/02/28 08:17:36;;;;;;;15.60;10.68;;;;;;;2.80;100.00;101944.63;4916886;29;20060;-71
2022/02/28 08:20:21;;;;;;;17.60;10.63;;;;;;;3.10;100.00;101952.53;4930056;29;20054;-72
2022/02/28 08:23:07;;;;;;;16.08;11.35;;;;;;;3.14;100.00;101954.38;4931507;29;20039;-71
2022/02/28 08:25:53;;;;;;;19.60;11.18;;;;;;;2.98;100.00;101962.47;4930564;29;20032;-71
2022/02/28 08:28:39;;;;;;;15.98;10.60;;;;;;;3.24;100.00;101952.13;4930000;29;20523;-72
2022/02/28 08:31:25;;;;;;;18.45;11.73;;;;;;;3.20;100.00;101952.84;4916462;29;20122;-71
2022/02/28 08:34:11;;;;;;;18.80;11.65;;;;;;;2.97;100.00;101960.72;4917524;29;20441;-71
2022/02/28 08:36:57;;;;;;;18.40;12.35;;;;;;;3.15;100.00;101945.78;4931938;29;20052;-71
2022/02/28 08:39:42;;;;;;;16.95;12.18;;;;;;;2.83;100.00;101960.28;4930960;29;20035;-70
2022/02/28 08:42:28;;;;;;;19.10;12.02;;;;;;;3.01;100.00;101963.44;4930287;29;20042;-71
2022/02/28 08:45:14;;;;;;;19.75;13.43;;;;;;;3.47;100.00;101955.44;4928009;29;20496;-71
2022/02/28 08:48:00;;;;;;;18.23;12.80;;;;;;;2.96;100.00;101965.00;4916684;29;20380;-71
2022/02/28 08:50:46;;;;;;;19.33;12.23;;;;;;;2.85;100.00;101961.19;4929434;29;20034;-71
2022/02/28 08:53:32;;;;;;;20.67;13.65;;;;;;;3.01;100.00;101958.28;4915648;29;20390;-69
2022/02/28 08:56:19;;;;;;;23.80;13.80;;;;;;;3.17;100.00;101957.94;4929956;29;20051;-72
2022/02/28 08:59:06;;;;;;;24.27;15.65;;;;;;;3.38;100.00;101956.00;4930193;29;20047;-72
2022/02/28 09:01:52;;;;;;;19.25;13.52;;;;;;;3.46;100.00;101964.03;4929726;29;20075;-73
2022/02/28 09:04:40;;;;;;;18.77;12.75;;;;;;;3.20;100.00;101970.97;4930572;29;20118;-71
2022/02/28 09:07:29;;;;;;;20.60;12.50;;;;;;;3.25;100.00;101963.34;4914993;29;20111;-72
2022/02/28 09:10:18;;;;;;;17.95;12.68;;;;;;;3.76;100.00;101973.63;4929709;29;20110;-72
2022/02/28 09:13:04;;;;;;;20.20;12.88;;;;;;;3.51;100.00;101973.72;4929652;29;20035;-72
2022/02/28 09:15:50;;;;;;;17.00;11.60;;;;;;;3.41;100.00;101969.06;4929847;29;20051;-73
2022/02/28 09:18:36;;;;;;;15.40;11.55;;;;;;;3.92;100.00;101974.94;4915925;29;20126;-72
2022/02/28 09:21:22;;;;;;;18.55;12.57;;;;;;;3.47;100.00;101979.63;4915521;29;20039;-72
2022/02/28 09:24:08;;;;;;;19.38;12.30;;;;;;;3.69;100.00;101968.19;4931136;29;20045;-72
2022/02/28 09:26:55;;;;;;;18.48;11.93;;;;;;;3.52;100.00;101978.06;4930566;29;20024;-72
2022/02/28 09:29:41;;;;;;;16.75;11.50;;;;;;;3.59;100.00;101977.41;4916779;29;20118;-73
2022/02/28 09:32:27;;;;;;;16.40;11.75;;;;;;;4.17;100.00;101973.09;4915933;29;20039;-71
2022/02/28 09:35:13;;;;;;;15.50;10.07;;;;;;;3.45;100.00;101980.38;4930505;29;20019;-71
2022/02/28 09:37:59;;;;;;;15.45;11.35;;;;;;;3.70;100.00;101970.81;4929152;29;20074;-71
2022/02/28 09:40:46;;;;;;;16.90;11.48;;;;;;;3.97;100.00;101978.53;4915180;29;20023;-71
2022/02/28 09:43:33;;;;;;;15.48;10.73;;;;;;;4.47;100.00;101966.13;4914664;29;20042;-72
2022/02/28 09:46:19;;;;;;;15.40;10.70;;;;;;;4.17;100.00;101970.50;4928469;29;20042;-71
2022/02/28 09:49:05;;;;;;;14.43;10.20;;;;;;;4.17;100.00;101970.50;4929866;29;20051;-71
2022/02/28 09:51:51;;;;;;;14.07;10.40;;;;;;;4.46;100.00;101974.75;4929888;29;20101;-70
2022/02/28 09:54:37;;;;;;;14.95;10.05;;;;;;;4.19;100.00;101963.63;4930278;29;20091;-72
2022/02/28 09:57:23;;;;;;;18.95;11.20;;;;;;;4.07;100.00;101965.00;4929526;29;20031;-71
2022/02/28 10:00:11;;;;;;;12.38;9.18;;;;;;;3.91;100.00;101962.81;4930063;29;20036;-70
2022/02/28 10:03:00;;;;;;;11.68;9.00;;;;;;;3.31;100.00;101958.38;4913475;29;20345;-70
2022/02/28 10:05:49;;;;;;;13.70;9.23;;;;;;;3.80;100.00;101956.44;4928989;29;20020;-71
2022/02/28 10:08:47;;;;;;;15.60;10.02;;;;;;;4.14;100.00;101954.84;4915908;29;20039;-72
2022/02/28 10:11:39;;;;;;;15.32;9.90;;;;;;;4.43;100.00;101946.13;4915852;29;20402;-71
2022/02/28 10:14:26;;;;;;;12.30;8.90;;;;;;;4.01;100.00;101946.66;4915941;29;20083;-71
2022/02/28 10:17:14;;;;;;;13.50;9.20;;;;;;;4.24;100.00;101943.91;4931891;29;20479;-70
2022/02/28 10:20:00;;;;;;;12.55;9.50;;;;;;;4.42;100.00;101952.16;4916870;29;20468;-71
2022/02/28 10:23:04;;;;;;;13.50;9.40;;;;;;;4.45;100.00;101949.66;4932984;29;20090;-71
2022/02/28 10:25:53;;;;;;;14.95;9.73;;;;;;;4.37;100.00;101948.59;4931295;29;20031;-73
2022/02/28 10:28:39;;;;;;;20.40;14.02;;;;;;;3.84;100.00;101946.22;4933502;29;20044;-71
2022/02/28 10:31:25;;;;;;;14.13;9.23;;;;;;;3.76;100.00;101939.03;4933608;29;20445;-71
2022/02/28 10:34:19;;;;;;;12.82;9.15;;;;;;;3.99;100.00;101943.16;4938412;29;20091;-70
2022/02/28 10:37:05;;;;;;;13.35;9.10;;;;;;;4.03;100.00;101945.03;4938000;29;20452;-71
2022/02/28 10:40:02;;;;;;;13.77;9.93;;;;;;;3.92;100.00;101941.22;4911353;29;20063;-69
2022/02/28 10:42:54;;;;;;;12.90;8.75;;;;;;;4.03;100.00;101948.47;4937066;29;20035;-70
2022/02/28 10:45:42;;;;;;;19.33;11.80;;;;;;;4.41;100.00;101945.22;4937840;29;20468;-71
2022/02/28 10:48:27;;;;;;;16.17;10.55;;;;;;;4.14;100.00;101941.03;4939355;29;20464;-70
2022/02/28 10:51:14;;;;;;;16.08;9.88;;;;;;;4.17;100.00;101949.75;4939812;29;20028;-70
2022/02/28 10:54:08;;;;;;;13.63;10.02;;;;;;;4.05;100.00;101944.22;4939231;29;20024;-70
2022/02/28 10:56:59;;;;;;;14.85;10.07;;;;;;;4.27;100.00;101946.56;4934163;29;20120;-70
2022/02/28 10:59:51;;;;;;;15.00;10.45;;;;;;;3.97;100.00;101956.09;4931276;29;20036;-72
2022/02/28 11:02:37;;;;;;;18.60;10.88;;;;;;;3.91;100.00;101945.53;4932413;29;20478;-71
2022/02/28 11:05:26;;;;;;;15.63;10.60;;;;;;;3.99;100.00;101956.13;4930958;29;20031;-71
2022/02/28 11:08:17;;;;;;;17.55;11.50;;;;;;;4.08;100.00;101946.91;4934191;29;20031;-71
2022/02/28 11:11:12;;;;;;;17.48;12.52;;;;;;;3.94;100.00;101955.13;4919512;29;20154;-70
2022/02/28 11:13:59;;;;;;;15.32;10.73;;;;;;;3.65;100.00;101938.72;4931561;29;20035;-71
2022/02/28 11:16:45;;;;;;;18.05;10.77;;;;;;;3.78;100.00;101947.75;4932335;29;20456;-71
2022/02/28 11:19:31;;;;;;;28.85;18.38;;;;;;;3.98;100.00;101944.88;4932480;29;20182;-71
2022/02/28 11:22:17;;;;;;;18.27;11.98;;;;;;;4.16;100.00;101945.41;4918062;29;20098;-72
2022/02/28 11:25:09;;;;;;;18.25;12.13;;;;;;;3.89;100.00;101942.03;4932298;29;20391;-72
2022/02/28 11:27:57;;;;;;;19.55;12.40;;;;;;;3.95;100.00;101949.97;4931271;29;20047;-72
2022/02/28 11:30:43;;;;;;;17.73;11.75;;;;;;;4.13;100.00;101934.94;4917953;29;20035;-72
2022/02/28 11:33:29;;;;;;;18.58;12.40;;;;;;;4.48;100.00;101946.28;4931724;29;20082;-71
2022/02/28 11:36:14;;;;;;;17.88;12.15;;;;;;;4.50;100.00;101952.34;4917700;29;20036;-71
2022/02/28 11:39:14;;;;;;;15.48;10.77;;;;;;;3.85;100.00;101950.56;4931747;29;20035;-70
2022/02/28 11:42:00;;;;;;;16.75;12.05;;;;;;;4.07;100.00;101955.50;4931885;29;20102;-71
2022/02/28 11:44:58;;;;;;;19.60;13.18;;;;;;;4.17;100.00;101962.72;4917194;29;20024;-71
2022/02/28 11:47:44;;;;;;;17.75;12.13;;;;;;;3.87;100.00;101950.59;4918379;29;20032;-69
2022/02/28 11:50:58;;;;;;;19.83;12.90;;;;;;;3.82;100.00;101963.41;4917013;29;20495;-70
2022/02/28 11:53:51;;;;;;;22.40;12.77;;;;;;;3.89;100.00;101969.66;4916632;29;20086;-70
2022/02/28 11:56:37;;;;;;;20.08;13.20;;;;;;;3.85;100.00;101966.09;4932259;29;20070;-69
2022/02/28 11:59:26;;;;;;;21.50;13.80;;;;;;;4.14;100.00;101962.63;4930120;29;20456;-71
2022/02/28 12:02:26;;;;;;;22.40;13.07;;;;;;;3.72;100.00;101968.28;4929574;29;20032;-72
2022/02/28 12:05:51;;;;;;;18.02;12.80;;;;;;;4.14;100.00;101962.63;4917293;29;20387;-72
2022/02/28 12:08:40;;;;;;;16.60;11.10;;;;;;;3.59;100.00;101964.47;4930655;29;20043;-71
2022/02/28 12:11:29;;;;;;;19.35;13.63;;;;;;;4.23;100.00;101956.81;4929833;29;20054;-69
2022/02/28 12:14:15;;;;;;;19.40;13.25;;;;;;;4.53;100.00;101966.31;4931243;29;20031;-72
2022/02/28 12:20:16;;;;;;;16.08;12.23;;;;;;;4.39;100.00;101967.66;4931275;29;20448;-70
2022/02/28 12:23:05;;;;;;;17.20;12.15;;;;;;;4.29;100.00;101964.75;4931007;29;20099;-69
2022/02/28 12:25:51;;;;;;;16.80;11.70;;;;;;;4.12;100.00;101971.19;4916517;29;20638;-69
2022/02/28 12:28:38;;;;;;;15.90;10.85;;;;;;;3.75;100.00;101963.19;4918025;29;20126;-71
2022/02/28 12:31:35;;;;;;;16.00;11.38;;;;;;;3.71;100.00;101962.25;4929340;29;20110;-70
2022/02/28 12:34:33;;;;;;;18.35;11.30;;;;;;;3.57;100.00;101967.81;4931348;29;20042;-69
2022/02/28 12:37:24;;;;;;;18.90;13.15;;;;;;;3.65;100.00;101967.22;4931361;29;20031;-70
2022/02/28 12:40:11;;;;;;;17.27;11.50;;;;;;;3.75;100.00;101963.19;4931717;29;20046;-71
2022/02/28 12:42:57;;;;;;;19.58;12.18;;;;;;;3.86;100.00;101967.84;4919113;29;20093;-70
2022/02/28 12:45:45;;;;;;;15.88;11.38;;;;;;;3.39;100.00;101970.75;4911186;29;20047;-69
2022/02/28 12:48:31;;;;;;;17.38;12.02;;;;;;;3.58;100.00;101964.41;4915003;29;20360;-70
2022/02/28 12:51:20;;;;;;;17.80;12.32;;;;;;;3.62;100.00;101968.84;4914610;29;20055;-69